Maria P — SV4226 — position and weather

sailwx.info

Track history (hours):
 
Tides and Currents Weather Stations Pressure Air Temp Water Temp Dewpoint Dewpoint Depression Visibility Wind Speed Wind Dir Waves Ship Positions

Maria P

Last reported at 2017-Sep-17 15:15 UTC. Time now 2017-Sep-19 20:43 UTC.
Position N 37°30' E 023°56'.

Length 73 m; draft 3 m.

Type: Cargo ship. MMSI: 237128700.

Date/timePositionNaut miles runAvg speedWind from/ knotsBaromVisibWave heightAir tempDewpointWater temp
2017-Sep-17 15:15N 37°30' E 023°56'210.6
2017-Sep-17 15:00N 37°31' E 023°54'510.5
2017-Sep-17 14:30N 37°35' E 023°49'510.4
2017-Sep-17 14:00N 37°39' E 023°45'510.4
2017-Sep-17 13:30N 37°43' E 023°41'510.7
2017-Sep-17 13:00N 37°48' E 023°38'510.5
2017-Sep-17 12:30N 37°53' E 023°36'5 9.7
2017-Sep-17 12:00N 37°57' E 023°34'5 9.4
2017-Sep-17 11:30N 38°02' E 023°33'0 0.3
2017-Sep-17 11:00N 38°02' E 023°33'0 0.0
2017-Sep-17 10:30N 38°02' E 023°33'0 0.0
2017-Sep-17 10:00N 38°02' E 023°33'0 0.0
2017-Sep-17 09:30N 38°02' E 023°33'0 0.0
2017-Sep-17 09:00N 38°02' E 023°33'0 0.0
2017-Sep-17 08:31N 38°02' E 023°33'0 0.0
2017-Sep-17 08:00N 38°02' E 023°33'0 0.0
2017-Sep-17 07:30N 38°02' E 023°33'0 0.0
2017-Sep-17 07:00N 38°02' E 023°33'0 0.0
2017-Sep-17 06:30N 38°02' E 023°33'0 0.0
2017-Sep-17 06:00N 38°02' E 023°33'0 0.0
2017-Sep-17 05:30N 38°02' E 023°33'0 0.0
2017-Sep-17 05:00N 38°02' E 023°33'0 0.0
2017-Sep-17 04:31N 38°02' E 023°33'0 0.0
2017-Sep-17 04:00N 38°02' E 023°33'0 0.0
2017-Sep-17 03:30N 38°02' E 023°33'0 0.0
2017-Sep-17 03:00N 38°02' E 023°33'0 0.0
2017-Sep-17 02:30N 38°02' E 023°33'0 0.0
2017-Sep-17 02:00N 38°02' E 023°33'0 0.0
2017-Sep-17 01:30N 38°02' E 023°33'0 0.0
2017-Sep-17 01:01N 38°02' E 023°33'0 0.0
2017-Sep-17 00:30N 38°02' E 023°33'0 0.0
2017-Sep-17 00:00N 38°02' E 023°33'0 0.0
2017-Sep-16 23:30N 38°02' E 023°33'0 0.0
2017-Sep-16 23:00N 38°02' E 023°33'0 0.0
2017-Sep-16 22:30N 38°02' E 023°33'0 0.0
2017-Sep-16 22:00N 38°02' E 023°33'0 0.0
2017-Sep-16 21:30N 38°02' E 023°33'0 0.0
2017-Sep-16 21:00N 38°02' E 023°33'0 0.0
2017-Sep-16 20:30N 38°02' E 023°33'0 0.0
2017-Sep-16 20:00N 38°02' E 023°33'0 0.0
2017-Sep-16 19:30N 38°02' E 023°33'0 0.0
2017-Sep-16 19:00N 38°02' E 023°33'0 0.0
2017-Sep-16 18:30N 38°02' E 023°33'0 0.0
2017-Sep-16 18:00N 38°02' E 023°33'1 1.0
2017-Sep-16 17:30N 38°02' E 023°33'611.0
2017-Sep-16 17:00N 37°60' E 023°26'4 8.1
2017-Sep-16 16:30N 37°57' E 023°22'611.3
2017-Sep-16 16:00N 37°56' E 023°15'610.9
2017-Sep-16 15:30N 37°55' E 023°09'1 0.0
2017-Sep-15 12:27N 37°55' E 023°10'510.7
2017-Sep-15 12:00N 37°56' E 023°16'510.4
2017-Sep-15 11:31N 37°57' E 023°22'4 7.2
2017-Sep-15 11:00N 37°60' E 023°26'510.5
2017-Sep-15 10:30N 38°02' E 023°32'1 2.1
2017-Sep-15 10:00N 38°02' E 023°33'0 0.0
2017-Sep-15 09:30N 38°02' E 023°33'0 0.0
2017-Sep-15 09:00N 38°02' E 023°33'0 0.0
2017-Sep-15 08:30N 38°02' E 023°33'0 0.0
2017-Sep-15 08:00N 38°02' E 023°33'0 0.0
2017-Sep-15 07:30N 38°02' E 023°33'0 0.0
2017-Sep-15 07:00N 38°02' E 023°33'0 0.0
2017-Sep-15 06:30N 38°02' E 023°33'0 0.0
2017-Sep-15 06:00N 38°02' E 023°33'0 0.0
2017-Sep-15 05:30N 38°02' E 023°33'0 0.0
2017-Sep-15 05:00N 38°02' E 023°33'0 0.0
2017-Sep-15 04:30N 38°02' E 023°33'0 0.0
2017-Sep-15 04:00N 38°02' E 023°33'0 0.0
2017-Sep-15 03:30N 38°02' E 023°33'0 0.0
2017-Sep-15 03:00N 38°02' E 023°33'0 0.0
2017-Sep-15 02:30N 38°02' E 023°33'0 0.0
2017-Sep-15 02:00N 38°02' E 023°33'0 0.0
2017-Sep-15 01:30N 38°02' E 023°33'0 0.0
2017-Sep-15 01:00N 38°02' E 023°33'0 0.0
2017-Sep-15 00:30N 38°02' E 023°33'0 0.0
2017-Sep-15 00:00N 38°02' E 023°33'0 0.0
2017-Sep-14 23:30N 38°02' E 023°33'0 0.0
2017-Sep-14 23:00N 38°02' E 023°33'0 0.0
2017-Sep-14 22:30N 38°02' E 023°33'0 0.0
2017-Sep-14 22:00N 38°02' E 023°33'0 0.0
2017-Sep-14 21:30N 38°02' E 023°33'0 0.0
2017-Sep-14 21:00N 38°02' E 023°33'0 0.0
2017-Sep-14 20:30N 38°02' E 023°33'0 0.0
2017-Sep-14 20:00N 38°02' E 023°33'0 0.0
2017-Sep-14 19:30N 38°02' E 023°33'0 0.0
2017-Sep-14 19:00N 38°02' E 023°33'0 0.0
2017-Sep-14 18:31N 38°02' E 023°33'0 0.0
2017-Sep-14 18:01N 38°02' E 023°33'0 0.0
2017-Sep-14 17:30N 38°02' E 023°33'0 0.0
2017-Sep-14 17:00N 38°02' E 023°33'0 0.0
2017-Sep-14 16:30N 38°02' E 023°33'0 0.0
2017-Sep-14 16:00N 38°02' E 023°33'0 0.0
2017-Sep-14 15:30N 38°02' E 023°33'0 0.0
2017-Sep-14 15:00N 38°02' E 023°33'0 0.0
2017-Sep-14 14:31N 38°02' E 023°33'0 0.0
2017-Sep-14 14:00N 38°02' E 023°33'0 0.0
2017-Sep-14 13:30N 38°02' E 023°33'0 0.0
2017-Sep-14 13:00N 38°02' E 023°33'0 0.0
2017-Sep-14 12:30N 38°02' E 023°33'0 0.0
2017-Sep-14 12:00N 38°02' E 023°33'0 0.0
2017-Sep-14 11:30N 38°02' E 023°33'0 0.0
2017-Sep-14 11:00N 38°02' E 023°33'0 0.0
2017-Sep-14 10:30N 38°02' E 023°33'0 0.0
2017-Sep-14 10:00N 38°02' E 023°33'0 0.0
2017-Sep-14 09:30N 38°02' E 023°33'0 0.0
2017-Sep-14 09:00N 38°02' E 023°33'0 0.0
2017-Sep-14 08:30N 38°02' E 023°33'0 0.0
2017-Sep-14 08:00N 38°02' E 023°33'0 0.0
2017-Sep-14 07:30N 38°02' E 023°33'0 0.0
2017-Sep-14 07:00N 38°02' E 023°33'0 0.0
2017-Sep-14 06:30N 38°02' E 023°33'0 0.0
2017-Sep-14 06:00N 38°02' E 023°33'0 0.0
2017-Sep-14 05:30N 38°02' E 023°33'0 0.0
2017-Sep-14 05:00N 38°02' E 023°33'0 0.0
2017-Sep-14 04:30N 38°02' E 023°33'0 0.0
2017-Sep-14 04:00N 38°02' E 023°33'0 0.0
2017-Sep-14 03:30N 38°02' E 023°33'0 0.0
2017-Sep-14 03:00N 38°02' E 023°33'0 0.0
2017-Sep-14 02:30N 38°02' E 023°33'0 0.0
2017-Sep-14 02:00N 38°02' E 023°33'0 0.0
2017-Sep-14 01:30N 38°02' E 023°33'0 0.0
2017-Sep-14 01:00N 38°02' E 023°33'0 0.0
2017-Sep-14 00:30N 38°02' E 023°33'0 0.0
2017-Sep-14 00:00N 38°02' E 023°33'4 7.2
2017-Sep-13 23:30N 38°01' E 023°29'4 7.7
2017-Sep-13 23:00N 37°58' E 023°26'5 9.4
2017-Sep-13 22:30N 37°54' E 023°23'510.4
2017-Sep-13 22:00N 37°48' E 023°24'610.4
2017-Sep-13 21:27N 37°43' E 023°25'510.4
2017-Sep-13 21:00N 37°38' E 023°25'6 4.9
2017-Sep-13 19:47N 37°33' E 023°30'310.5
2017-Sep-13 19:30N 37°32' E 023°34'510.5
2017-Sep-13 19:00N 37°29' E 023°39'510.6
2017-Sep-13 18:29N 37°27' E 023°45'710.2
2017-Sep-13 17:49N 37°23' E 023°53'11 9.9
2017-Sep-13 16:43N 37°17' E 024°04'108 3.9
2017-Sep-12 13:23N 35°30' E 024°23'4 9.6
2017-Sep-12 13:00N 35°27' E 024°25'5 9.9
2017-Sep-12 12:30N 35°23' E 024°29'1 2.2
2017-Sep-12 12:00N 35°22' E 024°29'0 0.0
2017-Sep-12 11:30N 35°22' E 024°29'0 0.0
2017-Sep-12 11:00N 35°22' E 024°29'0 0.0
2017-Sep-12 10:30N 35°22' E 024°29'0 0.0
2017-Sep-12 10:00N 35°22' E 024°29'0 0.0
2017-Sep-12 09:30N 35°22' E 024°29'0 0.0
2017-Sep-12 09:00N 35°22' E 024°29'0 0.0
2017-Sep-12 08:30N 35°22' E 024°29'0 0.0
2017-Sep-12 08:00N 35°22' E 024°29'0 0.0
2017-Sep-12 07:30N 35°22' E 024°29'0 0.0
2017-Sep-12 07:00N 35°22' E 024°29'0 0.0
2017-Sep-12 06:30N 35°22' E 024°29'0 0.0
2017-Sep-12 06:00N 35°22' E 024°29'0 0.3
2017-Sep-12 05:30N 35°22' E 024°29'5 9.5
2017-Sep-12 05:00N 35°27' E 024°29'610.6
2017-Sep-12 04:28N 35°32' E 024°27'110 9.5
2017-Sep-11 16:55N 37°19' E 023°51'17 9.5
2017-Sep-11 15:05N 37°35' E 023°44'1 9.8
2017-Sep-11 14:57N 37°36' E 023°43'4 9.7
2017-Sep-11 14:30N 37°40' E 023°42'5 9.8
2017-Sep-11 14:00N 37°45' E 023°39'5 9.9
2017-Sep-11 13:31N 37°49' E 023°36'5 9.9
2017-Sep-11 13:00N 37°54' E 023°35'4 8.4
2017-Sep-11 12:30N 37°58' E 023°33'4 8.6
2017-Sep-11 12:00N 38°02' E 023°33'0 0.0
2017-Sep-11 11:30N 38°02' E 023°33'0 0.0
2017-Sep-11 11:00N 38°02' E 023°33'0 0.0
2017-Sep-11 10:31N 38°02' E 023°33'0 0.0
2017-Sep-11 10:01N 38°02' E 023°33'0 0.0
2017-Sep-11 09:30N 38°02' E 023°33'0 0.0
2017-Sep-11 09:00N 38°02' E 023°33'0 0.0
2017-Sep-11 08:30N 38°02' E 023°33'0 0.0
2017-Sep-11 08:00N 38°02' E 023°33'0 0.0
2017-Sep-11 07:31N 38°02' E 023°33'0 0.0
2017-Sep-11 07:01N 38°02' E 023°33'0 0.0
2017-Sep-11 06:31N 38°02' E 023°33'0 0.0
2017-Sep-11 06:00N 38°02' E 023°33'0 0.0
2017-Sep-11 05:31N 38°02' E 023°33'0 0.0
2017-Sep-11 05:01N 38°02' E 023°33'0 0.0
2017-Sep-11 04:30N 38°02' E 023°33'0 0.0
2017-Sep-11 04:01N 38°02' E 023°33'0 0.0
2017-Sep-11 03:30N 38°02' E 023°33'0 0.0
2017-Sep-11 03:01N 38°02' E 023°33'0 0.0
2017-Sep-11 02:30N 38°02' E 023°33'0 0.0
2017-Sep-11 02:00N 38°02' E 023°33'0 0.0
2017-Sep-11 01:31N 38°02' E 023°33'0 0.0
2017-Sep-11 01:01N 38°02' E 023°33'0 0.0
2017-Sep-11 00:30N 38°02' E 023°33'0 0.0
2017-Sep-11 00:01N 38°02' E 023°33'0 0.0
2017-Sep-10 23:30N 38°02' E 023°33'0 0.0
2017-Sep-10 23:01N 38°02' E 023°33'0 0.0
2017-Sep-10 22:30N 38°02' E 023°33'0 0.0
2017-Sep-10 22:00N 38°02' E 023°33'0 0.0
2017-Sep-10 21:30N 38°02' E 023°33'0 0.0
2017-Sep-10 21:00N 38°02' E 023°33'0 0.0
2017-Sep-10 20:30N 38°02' E 023°33'0 0.0
2017-Sep-10 20:00N 38°02' E 023°33'0 0.0
2017-Sep-10 19:31N 38°02' E 023°33'0 0.0
2017-Sep-10 19:00N 38°02' E 023°33'0 0.0
2017-Sep-10 18:30N 38°02' E 023°33'0 0.0
2017-Sep-10 18:01N 38°02' E 023°33'0 0.0
2017-Sep-10 17:31N 38°02' E 023°33'0 0.0
2017-Sep-10 17:00N 38°02' E 023°33'0 0.0
2017-Sep-10 16:31N 38°02' E 023°33'0 0.0
2017-Sep-10 16:01N 38°02' E 023°33'0 0.0
2017-Sep-10 15:30N 38°02' E 023°33'0 0.0
2017-Sep-10 15:00N 38°02' E 023°33'0 0.0
2017-Sep-10 14:01N 38°02' E 023°33'0 0.0
2017-Sep-10 13:31N 38°02' E 023°33'0 0.0
2017-Sep-10 13:00N 38°02' E 023°33'0 0.0
2017-Sep-10 12:31N 38°02' E 023°33'0 0.0
2017-Sep-10 12:00N 38°02' E 023°33'0 0.0
2017-Sep-10 11:31N 38°02' E 023°33'0 0.0
2017-Sep-10 11:00N 38°02' E 023°33'0 0.0
2017-Sep-10 10:31N 38°02' E 023°33'0 0.0
2017-Sep-10 10:01N 38°02' E 023°33'0 0.0
2017-Sep-10 09:30N 38°02' E 023°33'0 0.0
2017-Sep-10 09:00N 38°02' E 023°33'0 0.0
2017-Sep-10 08:31N 38°02' E 023°33'0 0.0
2017-Sep-10 08:00N 38°02' E 023°33'0 0.0
2017-Sep-10 07:30N 38°02' E 023°33'0 0.0
2017-Sep-10 07:00N 38°02' E 023°33'0 0.0
2017-Sep-10 06:31N 38°02' E 023°33'0 0.0
2017-Sep-10 06:01N 38°02' E 023°33'0 0.0
2017-Sep-10 05:31N 38°02' E 023°33'0 0.0
2017-Sep-10 05:01N 38°02' E 023°33'0 0.0
2017-Sep-10 04:30N 38°02' E 023°33'0 0.0
2017-Sep-10 04:01N 38°02' E 023°33'0 0.0
2017-Sep-10 03:30N 38°02' E 023°33'0 0.0
2017-Sep-10 03:01N 38°02' E 023°33'0 0.0
2017-Sep-10 02:31N 38°02' E 023°33'0 0.0
2017-Sep-10 02:00N 38°02' E 023°33'0 0.0
2017-Sep-10 01:31N 38°02' E 023°33'0 0.0
2017-Sep-10 01:01N 38°02' E 023°33'0 0.0
2017-Sep-10 00:31N 38°02' E 023°33'0 0.0
2017-Sep-10 00:00N 38°02' E 023°33'0 0.0
2017-Sep-09 23:30N 38°02' E 023°33'0 0.0
2017-Sep-09 23:01N 38°02' E 023°33'0 0.0
2017-Sep-09 22:31N 38°02' E 023°33'0 0.0
2017-Sep-09 22:00N 38°02' E 023°33'0 0.0
2017-Sep-09 21:31N 38°02' E 023°33'0 0.0
2017-Sep-09 21:01N 38°02' E 023°33'0 0.0
2017-Sep-09 20:31N 38°02' E 023°33'0 0.0
2017-Sep-09 20:00N 38°02' E 023°33'0 0.0
2017-Sep-09 19:30N 38°02' E 023°33'0 0.0
2017-Sep-09 19:00N 38°02' E 023°33'0 0.0
2017-Sep-09 18:31N 38°02' E 023°33'0 0.0
2017-Sep-09 18:00N 38°02' E 023°33'0 0.0
2017-Sep-09 17:31N 38°02' E 023°33'0 0.0
2017-Sep-09 17:01N 38°02' E 023°33'0 0.0
2017-Sep-09 16:31N 38°02' E 023°33'0 0.0
2017-Sep-09 16:01N 38°02' E 023°33'0 0.0
2017-Sep-09 15:31N 38°02' E 023°33'0 0.0
2017-Sep-09 15:01N 38°02' E 023°33'0 0.0
2017-Sep-09 14:30N 38°02' E 023°33'0 0.0
2017-Sep-09 14:00N 38°02' E 023°33'0 0.0
2017-Sep-09 13:31N 38°02' E 023°33'0 0.0
2017-Sep-09 13:01N 38°02' E 023°33'0 0.0
2017-Sep-09 12:31N 38°02' E 023°33'0 0.0
2017-Sep-09 12:01N 38°02' E 023°33'0 0.0
2017-Sep-09 11:31N 38°02' E 023°33'0 0.0
2017-Sep-09 11:01N 38°02' E 023°33'0 0.0
2017-Sep-09 10:31N 38°02' E 023°33'0 0.0
2017-Sep-09 10:00N 38°02' E 023°33'0 0.0
2017-Sep-09 09:30N 38°02' E 023°33'0 0.0
2017-Sep-09 09:00N 38°02' E 023°33'0 0.0
2017-Sep-09 08:30N 38°02' E 023°33'0 0.0
2017-Sep-09 08:01N 38°02' E 023°33'0 0.0
2017-Sep-09 07:31N 38°02' E 023°33'0 0.0
2017-Sep-09 07:00N 38°02' E 023°33'0 0.0
2017-Sep-09 06:31N 38°02' E 023°33'0 0.0
2017-Sep-09 06:01N 38°02' E 023°33'0 0.0
2017-Sep-09 05:31N 38°02' E 023°33'0 0.0
2017-Sep-09 05:01N 38°02' E 023°33'0 0.0
2017-Sep-09 04:31N 38°02' E 023°33'0 0.0
2017-Sep-09 04:01N 38°02' E 023°33'0 0.0
2017-Sep-09 03:31N 38°02' E 023°33'0 0.0
2017-Sep-09 03:01N 38°02' E 023°33'0 0.0
2017-Sep-09 02:30N 38°02' E 023°33'0 0.0
2017-Sep-09 02:01N 38°02' E 023°33'0 0.0
2017-Sep-09 01:31N 38°02' E 023°33'0 0.0
2017-Sep-09 01:01N 38°02' E 023°33'0 0.0
2017-Sep-09 00:30N 38°02' E 023°33'0 0.0
2017-Sep-09 00:01N 38°02' E 023°33'0 0.0
2017-Sep-08 23:31N 38°02' E 023°33'0 0.0
2017-Sep-08 23:01N 38°02' E 023°33'0 0.0
2017-Sep-08 22:31N 38°02' E 023°33'0 0.0
2017-Sep-08 22:01N 38°02' E 023°33'0 0.0
2017-Sep-08 21:31N 38°02' E 023°33'0 0.0
2017-Sep-08 21:00N 38°02' E 023°33'0 0.0
2017-Sep-08 20:31N 38°02' E 023°33'0 0.0
2017-Sep-08 20:00N 38°02' E 023°33'0 0.0
2017-Sep-08 19:30N 38°02' E 023°33'0 0.0
2017-Sep-08 19:01N 38°02' E 023°33'0 0.0
2017-Sep-08 18:30N 38°02' E 023°33'0 0.0
2017-Sep-08 18:00N 38°02' E 023°33'0 0.0
2017-Sep-08 17:30N 38°02' E 023°33'0 0.0
2017-Sep-08 17:00N 38°02' E 023°33'0 0.0
2017-Sep-08 16:30N 38°02' E 023°33'0 0.0
2017-Sep-08 16:00N 38°02' E 023°33'0 0.0
2017-Sep-08 15:30N 38°02' E 023°33'0 0.0
2017-Sep-08 15:00N 38°02' E 023°33'0 0.0
2017-Sep-08 14:30N 38°02' E 023°33'0 0.0
2017-Sep-08 14:00N 38°02' E 023°33'0 0.0
2017-Sep-08 13:30N 38°02' E 023°33'0 0.0
2017-Sep-08 13:00N 38°02' E 023°33'0 0.0
2017-Sep-08 12:30N 38°02' E 023°33'0 0.0
2017-Sep-08 12:00N 38°02' E 023°33'0 0.0
2017-Sep-08 11:30N 38°02' E 023°33'0 0.0
2017-Sep-08 11:00N 38°02' E 023°33'0 0.0
2017-Sep-08 10:30N 38°02' E 023°33'0 0.0
2017-Sep-08 10:00N 38°02' E 023°33'0 0.0
2017-Sep-08 09:30N 38°02' E 023°33'0 0.0
2017-Sep-08 09:00N 38°02' E 023°33'0 0.0
2017-Sep-08 08:30N 38°02' E 023°33'0 0.0
2017-Sep-08 08:00N 38°02' E 023°33'0 0.0
2017-Sep-08 07:30N 38°02' E 023°33'0 0.0
2017-Sep-08 07:00N 38°02' E 023°33'0 0.0
2017-Sep-08 06:30N 38°02' E 023°33'0 0.0
2017-Sep-08 06:00N 38°02' E 023°33'0 0.1
2017-Sep-08 05:31N 38°02' E 023°33'5 9.6
2017-Sep-08 05:01N 37°57' E 023°34'3 6.8
2017-Sep-08 04:30N 37°55' E 023°36'510.6
2017-Sep-08 04:01N 37°50' E 023°39'510.7
2017-Sep-08 03:30N 37°45' E 023°42'510.5
2017-Sep-08 02:59N 37°40' E 023°45'3910.8
2017-Sep-07 23:24N 37°03' E 023°57'410.6
2017-Sep-07 23:01N 36°59' E 023°59'510.3
2017-Sep-07 22:30N 36°54' E 024°00'3710.5
2017-Sep-07 19:03N 36°18' E 024°11'010.3
2017-Sep-07 19:01N 36°18' E 024°11'  
Track history (hours):
 
Tides and Currents Weather Stations Pressure Air Temp Water Temp Dewpoint Dewpoint Depression Visibility Wind Speed Wind Dir Waves Ship Positions

Maria P

Last reported at 2017-Sep-17 15:15 UTC. Time now 2017-Sep-19 20:43 UTC.
Position N 37°30' E 023°56'.

Length 73 m; draft 3 m.

Type: Cargo ship. MMSI: 237128700.

Date/timePositionNaut miles runAvg speedWind from/ knotsBaromVisibWave heightAir tempDewpointWater temp
2017-Sep-17 15:15N 37°30' E 023°56'210.6
2017-Sep-17 15:00N 37°31' E 023°54'510.5
2017-Sep-17 14:30N 37°35' E 023°49'510.4
2017-Sep-17 14:00N 37°39' E 023°45'510.4
2017-Sep-17 13:30N 37°43' E 023°41'510.7
2017-Sep-17 13:00N 37°48' E 023°38'510.5
2017-Sep-17 12:30N 37°53' E 023°36'5 9.7
2017-Sep-17 12:00N 37°57' E 023°34'5 9.4
2017-Sep-17 11:30N 38°02' E 023°33'0 0.3
2017-Sep-17 11:00N 38°02' E 023°33'0 0.0
2017-Sep-17 10:30N 38°02' E 023°33'0 0.0
2017-Sep-17 10:00N 38°02' E 023°33'0 0.0
2017-Sep-17 09:30N 38°02' E 023°33'0 0.0
2017-Sep-17 09:00N 38°02' E 023°33'0 0.0
2017-Sep-17 08:31N 38°02' E 023°33'0 0.0
2017-Sep-17 08:00N 38°02' E 023°33'0 0.0
2017-Sep-17 07:30N 38°02' E 023°33'0 0.0
2017-Sep-17 07:00N 38°02' E 023°33'0 0.0
2017-Sep-17 06:30N 38°02' E 023°33'0 0.0
2017-Sep-17 06:00N 38°02' E 023°33'0 0.0
2017-Sep-17 05:30N 38°02' E 023°33'0 0.0
2017-Sep-17 05:00N 38°02' E 023°33'0 0.0
2017-Sep-17 04:31N 38°02' E 023°33'0 0.0
2017-Sep-17 04:00N 38°02' E 023°33'0 0.0
2017-Sep-17 03:30N 38°02' E 023°33'0 0.0
2017-Sep-17 03:00N 38°02' E 023°33'0 0.0
2017-Sep-17 02:30N 38°02' E 023°33'0 0.0
2017-Sep-17 02:00N 38°02' E 023°33'0 0.0
2017-Sep-17 01:30N 38°02' E 023°33'0 0.0
2017-Sep-17 01:01N 38°02' E 023°33'0 0.0
2017-Sep-17 00:30N 38°02' E 023°33'0 0.0
2017-Sep-17 00:00N 38°02' E 023°33'0 0.0
2017-Sep-16 23:30N 38°02' E 023°33'0 0.0
2017-Sep-16 23:00N 38°02' E 023°33'0 0.0
2017-Sep-16 22:30N 38°02' E 023°33'0 0.0
2017-Sep-16 22:00N 38°02' E 023°33'0 0.0
2017-Sep-16 21:30N 38°02' E 023°33'0 0.0
2017-Sep-16 21:00N 38°02' E 023°33'0 0.0
2017-Sep-16 20:30N 38°02' E 023°33'0 0.0
2017-Sep-16 20:00N 38°02' E 023°33'0 0.0
2017-Sep-16 19:30N 38°02' E 023°33'0 0.0
2017-Sep-16 19:00N 38°02' E 023°33'0 0.0
2017-Sep-16 18:30N 38°02' E 023°33'0 0.0
2017-Sep-16 18:00N 38°02' E 023°33'1 1.0
2017-Sep-16 17:30N 38°02' E 023°33'611.0
2017-Sep-16 17:00N 37°60' E 023°26'4 8.1
2017-Sep-16 16:30N 37°57' E 023°22'611.3
2017-Sep-16 16:00N 37°56' E 023°15'610.9
2017-Sep-16 15:30N 37°55' E 023°09'1 0.0
2017-Sep-15 12:27N 37°55' E 023°10'510.7
2017-Sep-15 12:00N 37°56' E 023°16'510.4
2017-Sep-15 11:31N 37°57' E 023°22'4 7.2
2017-Sep-15 11:00N 37°60' E 023°26'510.5
2017-Sep-15 10:30N 38°02' E 023°32'1 2.1
2017-Sep-15 10:00N 38°02' E 023°33'0 0.0
2017-Sep-15 09:30N 38°02' E 023°33'0 0.0
2017-Sep-15 09:00N 38°02' E 023°33'0 0.0
2017-Sep-15 08:30N 38°02' E 023°33'0 0.0
2017-Sep-15 08:00N 38°02' E 023°33'0 0.0
2017-Sep-15 07:30N 38°02' E 023°33'0 0.0
2017-Sep-15 07:00N 38°02' E 023°33'0 0.0
2017-Sep-15 06:30N 38°02' E 023°33'0 0.0
2017-Sep-15 06:00N 38°02' E 023°33'0 0.0
2017-Sep-15 05:30N 38°02' E 023°33'0 0.0
2017-Sep-15 05:00N 38°02' E 023°33'0 0.0
2017-Sep-15 04:30N 38°02' E 023°33'0 0.0
2017-Sep-15 04:00N 38°02' E 023°33'0 0.0
2017-Sep-15 03:30N 38°02' E 023°33'0 0.0
2017-Sep-15 03:00N 38°02' E 023°33'0 0.0
2017-Sep-15 02:30N 38°02' E 023°33'0 0.0
2017-Sep-15 02:00N 38°02' E 023°33'0 0.0
2017-Sep-15 01:30N 38°02' E 023°33'0 0.0
2017-Sep-15 01:00N 38°02' E 023°33'0 0.0
2017-Sep-15 00:30N 38°02' E 023°33'0 0.0
2017-Sep-15 00:00N 38°02' E 023°33'0 0.0
2017-Sep-14 23:30N 38°02' E 023°33'0 0.0
2017-Sep-14 23:00N 38°02' E 023°33'0 0.0
2017-Sep-14 22:30N 38°02' E 023°33'0 0.0
2017-Sep-14 22:00N 38°02' E 023°33'0 0.0
2017-Sep-14 21:30N 38°02' E 023°33'0 0.0
2017-Sep-14 21:00N 38°02' E 023°33'0 0.0
2017-Sep-14 20:30N 38°02' E 023°33'0 0.0
2017-Sep-14 20:00N 38°02' E 023°33'0 0.0
2017-Sep-14 19:30N 38°02' E 023°33'0 0.0
2017-Sep-14 19:00N 38°02' E 023°33'0 0.0
2017-Sep-14 18:31N 38°02' E 023°33'0 0.0
2017-Sep-14 18:01N 38°02' E 023°33'0 0.0
2017-Sep-14 17:30N 38°02' E 023°33'0 0.0
2017-Sep-14 17:00N 38°02' E 023°33'0 0.0
2017-Sep-14 16:30N 38°02' E 023°33'0 0.0
2017-Sep-14 16:00N 38°02' E 023°33'0 0.0
2017-Sep-14 15:30N 38°02' E 023°33'0 0.0
2017-Sep-14 15:00N 38°02' E 023°33'0 0.0
2017-Sep-14 14:31N 38°02' E 023°33'0 0.0
2017-Sep-14 14:00N 38°02' E 023°33'0 0.0
2017-Sep-14 13:30N 38°02' E 023°33'0 0.0
2017-Sep-14 13:00N 38°02' E 023°33'0 0.0
2017-Sep-14 12:30N 38°02' E 023°33'0 0.0
2017-Sep-14 12:00N 38°02' E 023°33'0 0.0
2017-Sep-14 11:30N 38°02' E 023°33'0 0.0
2017-Sep-14 11:00N 38°02' E 023°33'0 0.0
2017-Sep-14 10:30N 38°02' E 023°33'0 0.0
2017-Sep-14 10:00N 38°02' E 023°33'0 0.0
2017-Sep-14 09:30N 38°02' E 023°33'0 0.0
2017-Sep-14 09:00N 38°02' E 023°33'0 0.0
2017-Sep-14 08:30N 38°02' E 023°33'0 0.0
2017-Sep-14 08:00N 38°02' E 023°33'0 0.0
2017-Sep-14 07:30N 38°02' E 023°33'0 0.0
2017-Sep-14 07:00N 38°02' E 023°33'0 0.0
2017-Sep-14 06:30N 38°02' E 023°33'0 0.0
2017-Sep-14 06:00N 38°02' E 023°33'0 0.0
2017-Sep-14 05:30N 38°02' E 023°33'0 0.0
2017-Sep-14 05:00N 38°02' E 023°33'0 0.0
2017-Sep-14 04:30N 38°02' E 023°33'0 0.0
2017-Sep-14 04:00N 38°02' E 023°33'0 0.0
2017-Sep-14 03:30N 38°02' E 023°33'0 0.0
2017-Sep-14 03:00N 38°02' E 023°33'0 0.0
2017-Sep-14 02:30N 38°02' E 023°33'0 0.0
2017-Sep-14 02:00N 38°02' E 023°33'0 0.0
2017-Sep-14 01:30N 38°02' E 023°33'0 0.0
2017-Sep-14 01:00N 38°02' E 023°33'0 0.0
2017-Sep-14 00:30N 38°02' E 023°33'0 0.0
2017-Sep-14 00:00N 38°02' E 023°33'4 7.2
2017-Sep-13 23:30N 38°01' E 023°29'4 7.7
2017-Sep-13 23:00N 37°58' E 023°26'5 9.4
2017-Sep-13 22:30N 37°54' E 023°23'510.4
2017-Sep-13 22:00N 37°48' E 023°24'610.4
2017-Sep-13 21:27N 37°43' E 023°25'510.4
2017-Sep-13 21:00N 37°38' E 023°25'6 4.9
2017-Sep-13 19:47N 37°33' E 023°30'310.5
2017-Sep-13 19:30N 37°32' E 023°34'510.5
2017-Sep-13 19:00N 37°29' E 023°39'510.6
2017-Sep-13 18:29N 37°27' E 023°45'710.2
2017-Sep-13 17:49N 37°23' E 023°53'11 9.9
2017-Sep-13 16:43N 37°17' E 024°04'108 3.9
2017-Sep-12 13:23N 35°30' E 024°23'4 9.6
2017-Sep-12 13:00N 35°27' E 024°25'5 9.9
2017-Sep-12 12:30N 35°23' E 024°29'1 2.2
2017-Sep-12 12:00N 35°22' E 024°29'0 0.0
2017-Sep-12 11:30N 35°22' E 024°29'0 0.0
2017-Sep-12 11:00N 35°22' E 024°29'0 0.0
2017-Sep-12 10:30N 35°22' E 024°29'0 0.0
2017-Sep-12 10:00N 35°22' E 024°29'0 0.0
2017-Sep-12 09:30N 35°22' E 024°29'0 0.0
2017-Sep-12 09:00N 35°22' E 024°29'0 0.0
2017-Sep-12 08:30N 35°22' E 024°29'0 0.0
2017-Sep-12 08:00N 35°22' E 024°29'0 0.0
2017-Sep-12 07:30N 35°22' E 024°29'0 0.0
2017-Sep-12 07:00N 35°22' E 024°29'0 0.0
2017-Sep-12 06:30N 35°22' E 024°29'0 0.0
2017-Sep-12 06:00N 35°22' E 024°29'0 0.3
2017-Sep-12 05:30N 35°22' E 024°29'5 9.5
2017-Sep-12 05:00N 35°27' E 024°29'610.6
2017-Sep-12 04:28N 35°32' E 024°27'110 9.5
2017-Sep-11 16:55N 37°19' E 023°51'17 9.5
2017-Sep-11 15:05N 37°35' E 023°44'1 9.8
2017-Sep-11 14:57N 37°36' E 023°43'4 9.7
2017-Sep-11 14:30N 37°40' E 023°42'5 9.8
2017-Sep-11 14:00N 37°45' E 023°39'5 9.9
2017-Sep-11 13:31N 37°49' E 023°36'5 9.9
2017-Sep-11 13:00N 37°54' E 023°35'4 8.4
2017-Sep-11 12:30N 37°58' E 023°33'4 8.6
2017-Sep-11 12:00N 38°02' E 023°33'0 0.0
2017-Sep-11 11:30N 38°02' E 023°33'0 0.0
2017-Sep-11 11:00N 38°02' E 023°33'0 0.0
2017-Sep-11 10:31N 38°02' E 023°33'0 0.0
2017-Sep-11 10:01N 38°02' E 023°33'0 0.0
2017-Sep-11 09:30N 38°02' E 023°33'0 0.0
2017-Sep-11 09:00N 38°02' E 023°33'0 0.0
2017-Sep-11 08:30N 38°02' E 023°33'0 0.0
2017-Sep-11 08:00N 38°02' E 023°33'0 0.0
2017-Sep-11 07:31N 38°02' E 023°33'0 0.0
2017-Sep-11 07:01N 38°02' E 023°33'0 0.0
2017-Sep-11 06:31N 38°02' E 023°33'0 0.0
2017-Sep-11 06:00N 38°02' E 023°33'0 0.0
2017-Sep-11 05:31N 38°02' E 023°33'0 0.0
2017-Sep-11 05:01N 38°02' E 023°33'0 0.0
2017-Sep-11 04:30N 38°02' E 023°33'0 0.0
2017-Sep-11 04:01N 38°02' E 023°33'0 0.0
2017-Sep-11 03:30N 38°02' E 023°33'0 0.0
2017-Sep-11 03:01N 38°02' E 023°33'0 0.0
2017-Sep-11 02:30N 38°02' E 023°33'0 0.0
2017-Sep-11 02:00N 38°02' E 023°33'0 0.0
2017-Sep-11 01:31N 38°02' E 023°33'0 0.0
2017-Sep-11 01:01N 38°02' E 023°33'0 0.0
2017-Sep-11 00:30N 38°02' E 023°33'0 0.0
2017-Sep-11 00:01N 38°02' E 023°33'0 0.0
2017-Sep-10 23:30N 38°02' E 023°33'0 0.0
2017-Sep-10 23:01N 38°02' E 023°33'0 0.0
2017-Sep-10 22:30N 38°02' E 023°33'0 0.0
2017-Sep-10 22:00N 38°02' E 023°33'0 0.0
2017-Sep-10 21:30N 38°02' E 023°33'0 0.0
2017-Sep-10 21:00N 38°02' E 023°33'0 0.0
2017-Sep-10 20:30N 38°02' E 023°33'0 0.0
2017-Sep-10 20:00N 38°02' E 023°33'0 0.0
2017-Sep-10 19:31N 38°02' E 023°33'0 0.0
2017-Sep-10 19:00N 38°02' E 023°33'0 0.0
2017-Sep-10 18:30N 38°02' E 023°33'0 0.0
2017-Sep-10 18:01N 38°02' E 023°33'0 0.0
2017-Sep-10 17:31N 38°02' E 023°33'0 0.0
2017-Sep-10 17:00N 38°02' E 023°33'0 0.0
2017-Sep-10 16:31N 38°02' E 023°33'0 0.0
2017-Sep-10 16:01N 38°02' E 023°33'0 0.0
2017-Sep-10 15:30N 38°02' E 023°33'0 0.0
2017-Sep-10 15:00N 38°02' E 023°33'0 0.0
2017-Sep-10 14:01N 38°02' E 023°33'0 0.0
2017-Sep-10 13:31N 38°02' E 023°33'0 0.0
2017-Sep-10 13:00N 38°02' E 023°33'0 0.0
2017-Sep-10 12:31N 38°02' E 023°33'0 0.0
2017-Sep-10 12:00N 38°02' E 023°33'0 0.0
2017-Sep-10 11:31N 38°02' E 023°33'0 0.0
2017-Sep-10 11:00N 38°02' E 023°33'0 0.0
2017-Sep-10 10:31N 38°02' E 023°33'0 0.0
2017-Sep-10 10:01N 38°02' E 023°33'0 0.0
2017-Sep-10 09:30N 38°02' E 023°33'0 0.0
2017-Sep-10 09:00N 38°02' E 023°33'0 0.0
2017-Sep-10 08:31N 38°02' E 023°33'0 0.0
2017-Sep-10 08:00N 38°02' E 023°33'0 0.0
2017-Sep-10 07:30N 38°02' E 023°33'0 0.0
2017-Sep-10 07:00N 38°02' E 023°33'0 0.0
2017-Sep-10 06:31N 38°02' E 023°33'0 0.0
2017-Sep-10 06:01N 38°02' E 023°33'0 0.0
2017-Sep-10 05:31N 38°02' E 023°33'0 0.0
2017-Sep-10 05:01N 38°02' E 023°33'0 0.0
2017-Sep-10 04:30N 38°02' E 023°33'0 0.0
2017-Sep-10 04:01N 38°02' E 023°33'0 0.0
2017-Sep-10 03:30N 38°02' E 023°33'0 0.0
2017-Sep-10 03:01N 38°02' E 023°33'0 0.0
2017-Sep-10 02:31N 38°02' E 023°33'0 0.0
2017-Sep-10 02:00N 38°02' E 023°33'0 0.0
2017-Sep-10 01:31N 38°02' E 023°33'0 0.0
2017-Sep-10 01:01N 38°02' E 023°33'0 0.0
2017-Sep-10 00:31N 38°02' E 023°33'0 0.0
2017-Sep-10 00:00N 38°02' E 023°33'0 0.0
2017-Sep-09 23:30N 38°02' E 023°33'0 0.0
2017-Sep-09 23:01N 38°02' E 023°33'0 0.0
2017-Sep-09 22:31N 38°02' E 023°33'0 0.0
2017-Sep-09 22:00N 38°02' E 023°33'0 0.0
2017-Sep-09 21:31N 38°02' E 023°33'0 0.0
2017-Sep-09 21:01N 38°02' E 023°33'0 0.0
2017-Sep-09 20:31N 38°02' E 023°33'0 0.0
2017-Sep-09 20:00N 38°02' E 023°33'0 0.0
2017-Sep-09 19:30N 38°02' E 023°33'0 0.0
2017-Sep-09 19:00N 38°02' E 023°33'0 0.0
2017-Sep-09 18:31N 38°02' E 023°33'0 0.0
2017-Sep-09 18:00N 38°02' E 023°33'0 0.0
2017-Sep-09 17:31N 38°02' E 023°33'0 0.0
2017-Sep-09 17:01N 38°02' E 023°33'0 0.0
2017-Sep-09 16:31N 38°02' E 023°33'0 0.0
2017-Sep-09 16:01N 38°02' E 023°33'0 0.0
2017-Sep-09 15:31N 38°02' E 023°33'0 0.0
2017-Sep-09 15:01N 38°02' E 023°33'0 0.0
2017-Sep-09 14:30N 38°02' E 023°33'0 0.0
2017-Sep-09 14:00N 38°02' E 023°33'0 0.0
2017-Sep-09 13:31N 38°02' E 023°33'0 0.0
2017-Sep-09 13:01N 38°02' E 023°33'0 0.0
2017-Sep-09 12:31N 38°02' E 023°33'0 0.0
2017-Sep-09 12:01N 38°02' E 023°33'0 0.0
2017-Sep-09 11:31N 38°02' E 023°33'0 0.0
2017-Sep-09 11:01N 38°02' E 023°33'0 0.0
2017-Sep-09 10:31N 38°02' E 023°33'0 0.0
2017-Sep-09 10:00N 38°02' E 023°33'0 0.0
2017-Sep-09 09:30N 38°02' E 023°33'0 0.0
2017-Sep-09 09:00N 38°02' E 023°33'0 0.0
2017-Sep-09 08:30N 38°02' E 023°33'0 0.0
2017-Sep-09 08:01N 38°02' E 023°33'0 0.0
2017-Sep-09 07:31N 38°02' E 023°33'0 0.0
2017-Sep-09 07:00N 38°02' E 023°33'0 0.0
2017-Sep-09 06:31N 38°02' E 023°33'0 0.0
2017-Sep-09 06:01N 38°02' E 023°33'0 0.0
2017-Sep-09 05:31N 38°02' E 023°33'0 0.0
2017-Sep-09 05:01N 38°02' E 023°33'0 0.0
2017-Sep-09 04:31N 38°02' E 023°33'0 0.0
2017-Sep-09 04:01N 38°02' E 023°33'0 0.0
2017-Sep-09 03:31N 38°02' E 023°33'0 0.0
2017-Sep-09 03:01N 38°02' E 023°33'0 0.0
2017-Sep-09 02:30N 38°02' E 023°33'0 0.0
2017-Sep-09 02:01N 38°02' E 023°33'0 0.0
2017-Sep-09 01:31N 38°02' E 023°33'0 0.0
2017-Sep-09 01:01N 38°02' E 023°33'0 0.0
2017-Sep-09 00:30N 38°02' E 023°33'0 0.0
2017-Sep-09 00:01N 38°02' E 023°33'0 0.0
2017-Sep-08 23:31N 38°02' E 023°33'0 0.0
2017-Sep-08 23:01N 38°02' E 023°33'0 0.0
2017-Sep-08 22:31N 38°02' E 023°33'0 0.0
2017-Sep-08 22:01N 38°02' E 023°33'0 0.0
2017-Sep-08 21:31N 38°02' E 023°33'0 0.0
2017-Sep-08 21:00N 38°02' E 023°33'0 0.0
2017-Sep-08 20:31N 38°02' E 023°33'0 0.0
2017-Sep-08 20:00N 38°02' E 023°33'0 0.0
2017-Sep-08 19:30N 38°02' E 023°33'0 0.0
2017-Sep-08 19:01N 38°02' E 023°33'0 0.0
2017-Sep-08 18:30N 38°02' E 023°33'0 0.0
2017-Sep-08 18:00N 38°02' E 023°33'0 0.0
2017-Sep-08 17:30N 38°02' E 023°33'0 0.0
2017-Sep-08 17:00N 38°02' E 023°33'0 0.0
2017-Sep-08 16:30N 38°02' E 023°33'0 0.0
2017-Sep-08 16:00N 38°02' E 023°33'0 0.0
2017-Sep-08 15:30N 38°02' E 023°33'0 0.0
2017-Sep-08 15:00N 38°02' E 023°33'0 0.0
2017-Sep-08 14:30N 38°02' E 023°33'0 0.0
2017-Sep-08 14:00N 38°02' E 023°33'0 0.0
2017-Sep-08 13:30N 38°02' E 023°33'0 0.0
2017-Sep-08 13:00N 38°02' E 023°33'0 0.0
2017-Sep-08 12:30N 38°02' E 023°33'0 0.0
2017-Sep-08 12:00N 38°02' E 023°33'0 0.0
2017-Sep-08 11:30N 38°02' E 023°33'0 0.0
2017-Sep-08 11:00N 38°02' E 023°33'0 0.0
2017-Sep-08 10:30N 38°02' E 023°33'0 0.0
2017-Sep-08 10:00N 38°02' E 023°33'0 0.0
2017-Sep-08 09:30N 38°02' E 023°33'0 0.0
2017-Sep-08 09:00N 38°02' E 023°33'0 0.0
2017-Sep-08 08:30N 38°02' E 023°33'0 0.0
2017-Sep-08 08:00N 38°02' E 023°33'0 0.0
2017-Sep-08 07:30N 38°02' E 023°33'0 0.0
2017-Sep-08 07:00N 38°02' E 023°33'0 0.0
2017-Sep-08 06:30N 38°02' E 023°33'0 0.0
2017-Sep-08 06:00N 38°02' E 023°33'0 0.1
2017-Sep-08 05:31N 38°02' E 023°33'5 9.6
2017-Sep-08 05:01N 37°57' E 023°34'3 6.8
2017-Sep-08 04:30N 37°55' E 023°36'510.6
2017-Sep-08 04:01N 37°50' E 023°39'510.7
2017-Sep-08 03:30N 37°45' E 023°42'510.5
2017-Sep-08 02:59N 37°40' E 023°45'3910.8
2017-Sep-07 23:24N 37°03' E 023°57'410.6
2017-Sep-07 23:01N 36°59' E 023°59'510.3
2017-Sep-07 22:30N 36°54' E 024°00'3710.5
2017-Sep-07 19:03N 36°18' E 024°11'010.3
2017-Sep-07 19:01N 36°18' E 024°11'  

Dump ship's entire track history